sensor_id;sensor_type;location;lat;lon;timestamp;temperature;humidity
47805;DHT22;33568;45.286;9.900;2023-07-13T00:01:32;27.30;82.70
47805;DHT22;33568;45.286;9.900;2023-07-13T00:03:59;27.30;82.80
47805;DHT22;33568;45.286;9.900;2023-07-13T00:06:26;27.30;83.20
47805;DHT22;33568;45.286;9.900;2023-07-13T00:08:56;27.50;83.20
47805;DHT22;33568;45.286;9.900;2023-07-13T00:11:23;27.50;83.20
47805;DHT22;33568;45.286;9.900;2023-07-13T00:13:49;27.60;83.10
47805;DHT22;33568;45.286;9.900;2023-07-13T00:16:16;27.60;83.20
47805;DHT22;33568;45.286;9.900;2023-07-13T00:18:42;27.60;83.60
47805;DHT22;33568;45.286;9.900;2023-07-13T00:21:09;27.60;84.00
47805;DHT22;33568;45.286;9.900;2023-07-13T00:23:37;27.60;84.20
47805;DHT22;33568;45.286;9.900;2023-07-13T00:26:06;27.60;84.20
47805;DHT22;33568;45.286;9.900;2023-07-13T00:28:33;27.70;84.00
47805;DHT22;33568;45.286;9.900;2023-07-13T00:31:01;27.60;84.00
47805;DHT22;33568;45.286;9.900;2023-07-13T00:33:28;27.60;84.10
47805;DHT22;33568;45.286;9.900;2023-07-13T00:35:57;27.50;84.40
47805;DHT22;33568;45.286;9.900;2023-07-13T00:38:24;27.60;84.70
47805;DHT22;33568;45.286;9.900;2023-07-13T00:40:50;27.60;84.90
47805;DHT22;33568;45.286;9.900;2023-07-13T00:43:20;27.80;85.20
47805;DHT22;33568;45.286;9.900;2023-07-13T00:48:21;28.50;84.00
47805;DHT22;33568;45.286;9.900;2023-07-13T00:50:51;28.80;82.80
47805;DHT22;33568;45.286;9.900;2023-07-13T00:53:19;28.90;82.10
47805;DHT22;33568;45.286;9.900;2023-07-13T00:55:48;28.50;82.00
47805;DHT22;33568;45.286;9.900;2023-07-13T00:58:16;28.20;82.50
47805;DHT22;33568;45.286;9.900;2023-07-13T01:00:43;28.00;83.50
47805;DHT22;33568;45.286;9.900;2023-07-13T01:03:10;28.10;84.20
47805;DHT22;33568;45.286;9.900;2023-07-13T01:05:37;28.30;83.50
47805;DHT22;33568;45.286;9.900;2023-07-13T01:08:05;28.20;83.40
47805;DHT22;33568;45.286;9.900;2023-07-13T01:10:34;28.30;83.50
47805;DHT22;33568;45.286;9.900;2023-07-13T01:13:08;28.50;83.10
47805;DHT22;33568;45.286;9.900;2023-07-13T01:15:44;28.70;83.00
47805;DHT22;33568;45.286;9.900;2023-07-13T01:18:25;28.90;81.50
47805;DHT22;33568;45.286;9.900;2023-07-13T01:21:02;29.00;81.80
47805;DHT22;33568;45.286;9.900;2023-07-13T01:23:30;29.10;81.50
47805;DHT22;33568;45.286;9.900;2023-07-13T01:25:58;29.30;81.50
47805;DHT22;33568;45.286;9.900;2023-07-13T01:28:25;29.40;81.20
47805;DHT22;33568;45.286;9.900;2023-07-13T01:30:56;29.50;80.60
47805;DHT22;33568;45.286;9.900;2023-07-13T01:33:24;29.40;80.50
47805;DHT22;33568;45.286;9.900;2023-07-13T01:35:51;29.40;80.10
47805;DHT22;33568;45.286;9.900;2023-07-13T01:38:20;29.40;80.20
47805;DHT22;33568;45.286;9.900;2023-07-13T01:40:47;29.20;79.80
47805;DHT22;33568;45.286;9.900;2023-07-13T01:43:14;28.80;80.00
47805;DHT22;33568;45.286;9.900;2023-07-13T01:45:41;28.60;80.90
47805;DHT22;33568;45.286;9.900;2023-07-13T01:48:10;28.50;81.60
47805;DHT22;33568;45.286;9.900;2023-07-13T01:50:37;28.50;81.80
47805;DHT22;33568;45.286;9.900;2023-07-13T01:53:04;28.40;81.90
47805;DHT22;33568;45.286;9.900;2023-07-13T01:55:31;28.30;82.10
47805;DHT22;33568;45.286;9.900;2023-07-13T01:57:57;28.20;82.80
47805;DHT22;33568;45.286;9.900;2023-07-13T02:00:24;28.40;83.10
47805;DHT22;33568;45.286;9.900;2023-07-13T02:02:51;28.50;83.00
47805;DHT22;33568;45.286;9.900;2023-07-13T02:05:18;28.70;82.60
47805;DHT22;33568;45.286;9.900;2023-07-13T02:07:45;28.50;82.10
47805;DHT22;33568;45.286;9.900;2023-07-13T02:10:12;28.40;82.20
47805;DHT22;33568;45.286;9.900;2023-07-13T02:12:39;28.40;82.60
47805;DHT22;33568;45.286;9.900;2023-07-13T02:15:06;28.20;82.00
47805;DHT22;33568;45.286;9.900;2023-07-13T02:17:34;28.00;82.10
47805;DHT22;33568;45.286;9.900;2023-07-13T02:20:02;27.80;82.40
47805;DHT22;33568;45.286;9.900;2023-07-13T02:22:30;27.60;83.10
47805;DHT22;33568;45.286;9.900;2023-07-13T02:24:57;27.50;83.60
47805;DHT22;33568;45.286;9.900;2023-07-13T02:27:23;27.40;83.90
47805;DHT22;33568;45.286;9.900;2023-07-13T02:29:50;27.30;84.50
47805;DHT22;33568;45.286;9.900;2023-07-13T02:32:21;27.10;85.10
47805;DHT22;33568;45.286;9.900;2023-07-13T02:34:47;26.90;86.30
47805;DHT22;33568;45.286;9.900;2023-07-13T02:37:14;26.90;86.30
47805;DHT22;33568;45.286;9.900;2023-07-13T02:39:41;26.80;86.50
47805;DHT22;33568;45.286;9.900;2023-07-13T02:42:07;26.70;86.80
47805;DHT22;33568;45.286;9.900;2023-07-13T02:44:34;26.60;87.60
47805;DHT22;33568;45.286;9.900;2023-07-13T02:47:01;26.60;87.90
47805;DHT22;33568;45.286;9.900;2023-07-13T02:49:27;26.50;88.10
47805;DHT22;33568;45.286;9.900;2023-07-13T02:51:54;26.40;88.70
47805;DHT22;33568;45.286;9.900;2023-07-13T02:54:20;26.30;89.30
47805;DHT22;33568;45.286;9.900;2023-07-13T02:56:47;26.10;90.00
47805;DHT22;33568;45.286;9.900;2023-07-13T02:59:14;26.20;90.20
47805;DHT22;33568;45.286;9.900;2023-07-13T03:01:40;26.30;90.40
47805;DHT22;33568;45.286;9.900;2023-07-13T03:04:07;26.60;90.20
47805;DHT22;33568;45.286;9.900;2023-07-13T03:06:35;26.70;89.30
47805;DHT22;33568;45.286;9.900;2023-07-13T03:09:03;26.80;88.90
47805;DHT22;33568;45.286;9.900;2023-07-13T03:11:31;26.80;88.40
47805;DHT22;33568;45.286;9.900;2023-07-13T03:14:13;26.70;88.00
47805;DHT22;33568;45.286;9.900;2023-07-13T03:16:41;26.60;88.00
47805;DHT22;33568;45.286;9.900;2023-07-13T03:19:07;26.60;88.60
47805;DHT22;33568;45.286;9.900;2023-07-13T03:21:34;26.60;88.80
47805;DHT22;33568;45.286;9.900;2023-07-13T03:24:01;26.70;89.10
47805;DHT22;33568;45.286;9.900;2023-07-13T03:26:28;26.80;88.70
47805;DHT22;33568;45.286;9.900;2023-07-13T03:28:56;26.80;88.60
47805;DHT22;33568;45.286;9.900;2023-07-13T03:31:28;26.70;88.70
47805;DHT22;33568;45.286;9.900;2023-07-13T03:33:56;26.70;88.70
47805;DHT22;33568;45.286;9.900;2023-07-13T03:36:29;26.70;88.60
47805;DHT22;33568;45.286;9.900;2023-07-13T03:39:00;26.70;88.40
47805;DHT22;33568;45.286;9.900;2023-07-13T03:41:40;26.60;88.40
47805;DHT22;33568;45.286;9.900;2023-07-13T03:44:06;26.60;88.80
47805;DHT22;33568;45.286;9.900;2023-07-13T03:46:33;26.60;89.10
47805;DHT22;33568;45.286;9.900;2023-07-13T03:49:01;26.70;89.40
47805;DHT22;33568;45.286;9.900;2023-07-13T03:51:28;26.70;89.40
47805;DHT22;33568;45.286;9.900;2023-07-13T03:53:54;26.70;89.40
47805;DHT22;33568;45.286;9.900;2023-07-13T03:56:22;26.70;89.40
47805;DHT22;33568;45.286;9.900;2023-07-13T03:58:49;26.60;89.50
47805;DHT22;33568;45.286;9.900;2023-07-13T04:01:21;26.50;89.60
47805;DHT22;33568;45.286;9.900;2023-07-13T04:03:48;26.50;90.10
47805;DHT22;33568;45.286;9.900;2023-07-13T04:06:19;26.60;90.00
47805;DHT22;33568;45.286;9.900;2023-07-13T04:08:53;26.70;89.90
47805;DHT22;33568;45.286;9.900;2023-07-13T04:11:21;27.00;89.30
47805;DHT22;33568;45.286;9.900;2023-07-13T04:13:48;27.20;88.30
47805;DHT22;33568;45.286;9.900;2023-07-13T04:16:15;27.10;88.00
47805;DHT22;33568;45.286;9.900;2023-07-13T04:18:42;27.20;88.00
47805;DHT22;33568;45.286;9.900;2023-07-13T04:21:10;27.20;87.60
47805;DHT22;33568;45.286;9.900;2023-07-13T04:23:38;27.10;87.30
47805;DHT22;33568;45.286;9.900;2023-07-13T04:26:05;27.10;87.10
47805;DHT22;33568;45.286;9.900;2023-07-13T04:28:32;27.10;87.10
47805;DHT22;33568;45.286;9.900;2023-07-13T04:30:59;27.10;87.10
47805;DHT22;33568;45.286;9.900;2023-07-13T04:33:26;27.10;87.20
47805;DHT22;33568;45.286;9.900;2023-07-13T04:35:55;27.10;87.50
47805;DHT22;33568;45.286;9.900;2023-07-13T04:38:28;27.10;86.70
47805;DHT22;33568;45.286;9.900;2023-07-13T04:40:56;27.10;86.70
47805;DHT22;33568;45.286;9.900;2023-07-13T04:43:23;26.90;87.40
47805;DHT22;33568;45.286;9.900;2023-07-13T04:45:51;26.60;88.20
47805;DHT22;33568;45.286;9.900;2023-07-13T04:48:19;26.50;89.00
47805;DHT22;33568;45.286;9.900;2023-07-13T04:50:46;26.60;89.40
47805;DHT22;33568;45.286;9.900;2023-07-13T04:53:12;26.60;89.20
47805;DHT22;33568;45.286;9.900;2023-07-13T04:55:39;26.80;89.30
47805;DHT22;33568;45.286;9.900;2023-07-13T04:58:07;26.80;89.00
47805;DHT22;33568;45.286;9.900;2023-07-13T05:00:33;26.90;88.50
47805;DHT22;33568;45.286;9.900;2023-07-13T05:03:00;27.00;88.20
47805;DHT22;33568;45.286;9.900;2023-07-13T05:05:27;26.90;88.30
47805;DHT22;33568;45.286;9.900;2023-07-13T05:07:54;26.70;88.70
47805;DHT22;33568;45.286;9.900;2023-07-13T05:10:20;26.70;89.20
47805;DHT22;33568;45.286;9.900;2023-07-13T05:12:47;26.70;89.70
47805;DHT22;33568;45.286;9.900;2023-07-13T05:15:14;26.70;90.00
47805;DHT22;33568;45.286;9.900;2023-07-13T05:17:41;26.70;90.10
47805;DHT22;33568;45.286;9.900;2023-07-13T05:20:09;26.70;90.10
47805;DHT22;33568;45.286;9.900;2023-07-13T05:22:36;26.80;90.00
47805;DHT22;33568;45.286;9.900;2023-07-13T05:25:05;26.80;89.80
47805;DHT22;33568;45.286;9.900;2023-07-13T05:27:32;26.70;90.00
47805;DHT22;33568;45.286;9.900;2023-07-13T05:29:59;26.70;90.10
47805;DHT22;33568;45.286;9.900;2023-07-13T05:32:26;26.70;90.10
47805;DHT22;33568;45.286;9.900;2023-07-13T05:34:52;26.80;90.00
47805;DHT22;33568;45.286;9.900;2023-07-13T05:37:19;26.80;89.90
47805;DHT22;33568;45.286;9.900;2023-07-13T05:39:45;26.80;90.00
47805;DHT22;33568;45.286;9.900;2023-07-13T05:42:12;26.70;89.90
47805;DHT22;33568;45.286;9.900;2023-07-13T05:44:38;26.50;90.10
47805;DHT22;33568;45.286;9.900;2023-07-13T05:47:05;26.50;90.40
47805;DHT22;33568;45.286;9.900;2023-07-13T05:49:32;26.40;90.50
47805;DHT22;33568;45.286;9.900;2023-07-13T05:51:59;26.40;90.80
47805;DHT22;33568;45.286;9.900;2023-07-13T05:54:26;26.40;90.90
47805;DHT22;33568;45.286;9.900;2023-07-13T05:56:52;26.40;91.00
47805;DHT22;33568;45.286;9.900;2023-07-13T05:59:19;26.40;91.10
47805;DHT22;33568;45.286;9.900;2023-07-13T06:01:45;26.50;91.10
47805;DHT22;33568;45.286;9.900;2023-07-13T06:04:12;26.50;91.00
47805;DHT22;33568;45.286;9.900;2023-07-13T06:06:38;26.50;91.00
47805;DHT22;33568;45.286;9.900;2023-07-13T06:09:05;26.50;90.90
47805;DHT22;33568;45.286;9.900;2023-07-13T06:11:31;26.60;91.10
47805;DHT22;33568;45.286;9.900;2023-07-13T06:13:58;26.60;91.10
47805;DHT22;33568;45.286;9.900;2023-07-13T06:16:24;26.60;91.10
47805;DHT22;33568;45.286;9.900;2023-07-13T06:18:51;26.50;91.30
47805;DHT22;33568;45.286;9.900;2023-07-13T06:21:21;26.30;91.60
47805;DHT22;33568;45.286;9.900;2023-07-13T06:23:49;26.30;91.80
47805;DHT22;33568;45.286;9.900;2023-07-13T06:26:17;26.30;91.80
47805;DHT22;33568;45.286;9.900;2023-07-13T06:28:44;26.40;91.70
47805;DHT22;33568;45.286;9.900;2023-07-13T06:31:12;26.50;91.60
47805;DHT22;33568;45.286;9.900;2023-07-13T06:33:39;26.50;91.40
47805;DHT22;33568;45.286;9.900;2023-07-13T06:36:06;26.60;91.40
47805;DHT22;33568;45.286;9.900;2023-07-13T06:38:34;26.60;91.20
47805;DHT22;33568;45.286;9.900;2023-07-13T06:41:01;26.60;91.20
47805;DHT22;33568;45.286;9.900;2023-07-13T06:43:27;26.50;91.20
47805;DHT22;33568;45.286;9.900;2023-07-13T06:45:56;26.40;91.40
47805;DHT22;33568;45.286;9.900;2023-07-13T06:48:22;26.40;91.50
47805;DHT22;33568;45.286;9.900;2023-07-13T06:50:50;26.40;91.50
47805;DHT22;33568;45.286;9.900;2023-07-13T06:53:18;26.40;91.50
47805;DHT22;33568;45.286;9.900;2023-07-13T06:55:45;26.50;91.50
47805;DHT22;33568;45.286;9.900;2023-07-13T06:58:12;26.60;91.40
47805;DHT22;33568;45.286;9.900;2023-07-13T07:00:39;26.70;91.30
47805;DHT22;33568;45.286;9.900;2023-07-13T07:03:06;26.70;91.00
47805;DHT22;33568;45.286;9.900;2023-07-13T07:05:33;26.70;90.80
47805;DHT22;33568;45.286;9.900;2023-07-13T07:07:59;26.90;90.60
47805;DHT22;33568;45.286;9.900;2023-07-13T07:10:26;27.00;90.40
47805;DHT22;33568;45.286;9.900;2023-07-13T07:12:53;27.00;90.40
47805;DHT22;33568;45.286;9.900;2023-07-13T07:15:19;26.90;90.30
47805;DHT22;33568;45.286;9.900;2023-07-13T07:17:46;26.80;90.40
47805;DHT22;33568;45.286;9.900;2023-07-13T07:20:12;26.70;90.60
47805;DHT22;33568;45.286;9.900;2023-07-13T07:22:39;26.70;90.70
47805;DHT22;33568;45.286;9.900;2023-07-13T07:25:06;26.60;90.90
47805;DHT22;33568;45.286;9.900;2023-07-13T07:27:33;26.50;91.00
47805;DHT22;33568;45.286;9.900;2023-07-13T07:29:59;26.50;91.20
47805;DHT22;33568;45.286;9.900;2023-07-13T07:32:26;26.50;91.30
47805;DHT22;33568;45.286;9.900;2023-07-13T07:34:52;26.60;91.40
47805;DHT22;33568;45.286;9.900;2023-07-13T07:37:19;26.60;91.40
47805;DHT22;33568;45.286;9.900;2023-07-13T07:39:45;26.50;91.60
47805;DHT22;33568;45.286;9.900;2023-07-13T07:42:12;26.60;91.60
47805;DHT22;33568;45.286;9.900;2023-07-13T07:44:40;26.60;91.60
47805;DHT22;33568;45.286;9.900;2023-07-13T07:47:07;26.70;91.50
47805;DHT22;33568;45.286;9.900;2023-07-13T07:49:35;26.70;91.30
47805;DHT22;33568;45.286;9.900;2023-07-13T07:52:02;26.70;91.20
47805;DHT22;33568;45.286;9.900;2023-07-13T07:54:29;26.60;91.20
47805;DHT22;33568;45.286;9.900;2023-07-13T07:56:55;26.50;91.20
47805;DHT22;33568;45.286;9.900;2023-07-13T07:59:22;26.60;91.20
47805;DHT22;33568;45.286;9.900;2023-07-13T08:01:48;26.70;91.20
47805;DHT22;33568;45.286;9.900;2023-07-13T08:04:16;26.70;91.20
47805;DHT22;33568;45.286;9.900;2023-07-13T08:06:43;26.70;91.30
47805;DHT22;33568;45.286;9.900;2023-07-13T08:09:10;26.80;91.20
47805;DHT22;33568;45.286;9.900;2023-07-13T08:11:36;26.70;91.40
47805;DHT22;33568;45.286;9.900;2023-07-13T08:14:03;26.70;91.50
47805;DHT22;33568;45.286;9.900;2023-07-13T08:16:29;26.60;91.40
47805;DHT22;33568;45.286;9.900;2023-07-13T08:18:56;26.70;91.40
47805;DHT22;33568;45.286;9.900;2023-07-13T08:21:22;26.80;91.30
47805;DHT22;33568;45.286;9.900;2023-07-13T08:23:49;26.80;91.40
47805;DHT22;33568;45.286;9.900;2023-07-13T08:26:16;26.80;91.40
47805;DHT22;33568;45.286;9.900;2023-07-13T08:28:42;26.90;91.30
47805;DHT22;33568;45.286;9.900;2023-07-13T08:31:09;26.90;91.20
47805;DHT22;33568;45.286;9.900;2023-07-13T08:33:37;27.00;90.90
47805;DHT22;33568;45.286;9.900;2023-07-13T08:36:04;27.10;90.70
47805;DHT22;33568;45.286;9.900;2023-07-13T08:38:32;27.10;90.30
47805;DHT22;33568;45.286;9.900;2023-07-13T08:40:58;27.10;90.10
47805;DHT22;33568;45.286;9.900;2023-07-13T08:43:30;27.10;89.90
47805;DHT22;33568;45.286;9.900;2023-07-13T08:48:41;27.00;89.20
47805;DHT22;33568;45.286;9.900;2023-07-13T08:53:55;27.00;87.00
47805;DHT22;33568;45.286;9.900;2023-07-13T08:56:26;27.00;87.80
47805;DHT22;33568;45.286;9.900;2023-07-13T08:58:57;27.00;87.90
47805;DHT22;33568;45.286;9.900;2023-07-13T09:04:29;27.30;87.60
47805;DHT22;33568;45.286;9.900;2023-07-13T09:14:58;27.50;86.00
47805;DHT22;33568;45.286;9.900;2023-07-13T09:17:40;27.50;86.40
47805;DHT22;33568;45.286;9.900;2023-07-13T09:22:44;27.60;86.10
47805;DHT22;33568;45.286;9.900;2023-07-13T09:25:18;27.60;86.40
47805;DHT22;33568;45.286;9.900;2023-07-13T09:27:47;27.60;86.60
47805;DHT22;33568;45.286;9.900;2023-07-13T09:32:43;27.40;87.20
47805;DHT22;33568;45.286;9.900;2023-07-13T09:35:12;27.30;87.50
47805;DHT22;33568;45.286;9.900;2023-07-13T09:37:44;27.20;87.90
47805;DHT22;33568;45.286;9.900;2023-07-13T09:40:25;27.10;88.10
47805;DHT22;33568;45.286;9.900;2023-07-13T09:42:54;27.10;88.50
47805;DHT22;33568;45.286;9.900;2023-07-13T09:45:30;27.00;89.20
47805;DHT22;33568;45.286;9.900;2023-07-13T09:48:05;27.00;90.20
47805;DHT22;33568;45.286;9.900;2023-07-13T09:50:32;27.00;90.50
47805;DHT22;33568;45.286;9.900;2023-07-13T09:53:01;27.00;90.80
47805;DHT22;33568;45.286;9.900;2023-07-13T09:55:40;27.00;91.30
47805;DHT22;33568;45.286;9.900;2023-07-13T10:00:39;27.30;91.10
47805;DHT22;33568;45.286;9.900;2023-07-13T10:03:27;27.40;91.00
47805;DHT22;33568;45.286;9.900;2023-07-13T10:05:54;27.40;90.90
47805;DHT22;33568;45.286;9.900;2023-07-13T10:08:31;27.60;90.70
47805;DHT22;33568;45.286;9.900;2023-07-13T10:14:02;28.30;90.00
47805;DHT22;33568;45.286;9.900;2023-07-13T10:16:35;28.80;87.20
47805;DHT22;33568;45.286;9.900;2023-07-13T10:19:05;28.90;86.80
47805;DHT22;33568;45.286;9.900;2023-07-13T10:21:52;29.00;85.90
47805;DHT22;33568;45.286;9.900;2023-07-13T10:24:25;29.30;85.70
47805;DHT22;33568;45.286;9.900;2023-07-13T10:27:20;29.30;84.60
47805;DHT22;33568;45.286;9.900;2023-07-13T10:29:59;29.60;83.70
47805;DHT22;33568;45.286;9.900;2023-07-13T10:32:27;29.80;82.70
47805;DHT22;33568;45.286;9.900;2023-07-13T10:34:54;30.00;82.10
47805;DHT22;33568;45.286;9.900;2023-07-13T10:37:26;30.00;80.90
47805;DHT22;33568;45.286;9.900;2023-07-13T10:39:55;30.10;81.00
47805;DHT22;33568;45.286;9.900;2023-07-13T10:42:43;30.20;80.80
47805;DHT22;33568;45.286;9.900;2023-07-13T10:45:22;30.40;81.40
47805;DHT22;33568;45.286;9.900;2023-07-13T10:47:53;30.50;81.20
47805;DHT22;33568;45.286;9.900;2023-07-13T10:50:25;30.70;81.20
47805;DHT22;33568;45.286;9.900;2023-07-13T10:52:55;30.80;80.60
47805;DHT22;33568;45.286;9.900;2023-07-13T10:58:15;30.10;78.90
47805;DHT22;33568;45.286;9.900;2023-07-13T11:01:07;30.30;79.70
47805;DHT22;33568;45.286;9.900;2023-07-13T11:03:50;30.60;79.00
47805;DHT22;33568;45.286;9.900;2023-07-13T11:08:58;31.00;78.10
47805;DHT22;33568;45.286;9.900;2023-07-13T11:11:35;31.20;77.70
47805;DHT22;33568;45.286;9.900;2023-07-13T11:14:07;31.50;76.30
47805;DHT22;33568;45.286;9.900;2023-07-13T11:16:54;31.60;75.90
47805;DHT22;33568;45.286;9.900;2023-07-13T11:24:56;32.40;74.30
47805;DHT22;33568;45.286;9.900;2023-07-13T11:27:43;32.50;69.80
47805;DHT22;33568;45.286;9.900;2023-07-13T11:38:24;31.10;71.50
47805;DHT22;33568;45.286;9.900;2023-07-13T11:40:54;30.90;70.20
47805;DHT22;33568;45.286;9.900;2023-07-13T11:43:22;30.90;71.60
47805;DHT22;33568;45.286;9.900;2023-07-13T11:45:51;30.70;72.10
47805;DHT22;33568;45.286;9.900;2023-07-13T11:48:29;30.50;72.60
47805;DHT22;33568;45.286;9.900;2023-07-13T11:51:03;30.40;73.50
47805;DHT22;33568;45.286;9.900;2023-07-13T11:53:40;30.30;73.40
47805;DHT22;33568;45.286;9.900;2023-07-13T11:56:07;30.50;73.30
47805;DHT22;33568;45.286;9.900;2023-07-13T11:58:34;30.90;73.10
47805;DHT22;33568;45.286;9.900;2023-07-13T12:01:02;31.20;72.20
47805;DHT22;33568;45.286;9.900;2023-07-13T12:03:32;31.70;71.30
47805;DHT22;33568;45.286;9.900;2023-07-13T12:06:04;32.20;70.30
47805;DHT22;33568;45.286;9.900;2023-07-13T12:08:40;32.60;69.90
47805;DHT22;33568;45.286;9.900;2023-07-13T12:11:16;32.70;67.90
47805;DHT22;33568;45.286;9.900;2023-07-13T12:13:44;32.80;67.80
47805;DHT22;33568;45.286;9.900;2023-07-13T12:18:47;33.00;68.10
47805;DHT22;33568;45.286;9.900;2023-07-13T12:21:17;33.10;68.30
47805;DHT22;33568;45.286;9.900;2023-07-13T12:23:47;33.10;67.50
47805;DHT22;33568;45.286;9.900;2023-07-13T12:26:16;33.10;67.20
47805;DHT22;33568;45.286;9.900;2023-07-13T12:28:51;33.10;67.00
47805;DHT22;33568;45.286;9.900;2023-07-13T12:31:46;33.30;66.50
47805;DHT22;33568;45.286;9.900;2023-07-13T12:34:20;33.50;66.40
47805;DHT22;33568;45.286;9.900;2023-07-13T12:36:51;33.70;66.40
47805;DHT22;33568;45.286;9.900;2023-07-13T12:41:52;33.90;65.50
47805;DHT22;33568;45.286;9.900;2023-07-13T12:44:28;34.00;65.90
47805;DHT22;33568;45.286;9.900;2023-07-13T12:47:04;33.90;65.00
47805;DHT22;33568;45.286;9.900;2023-07-13T12:49:33;33.90;65.90
47805;DHT22;33568;45.286;9.900;2023-07-13T12:52:09;34.10;66.00
47805;DHT22;33568;45.286;9.900;2023-07-13T12:54:39;34.10;65.50
47805;DHT22;33568;45.286;9.900;2023-07-13T12:57:08;34.20;64.60
47805;DHT22;33568;45.286;9.900;2023-07-13T12:59:40;34.10;64.00
47805;DHT22;33568;45.286;9.900;2023-07-13T13:02:30;34.00;63.30
47805;DHT22;33568;45.286;9.900;2023-07-13T13:04:57;34.00;63.30
47805;DHT22;33568;45.286;9.900;2023-07-13T13:07:25;33.90;63.50
47805;DHT22;33568;45.286;9.900;2023-07-13T13:09:52;33.90;64.10
47805;DHT22;33568;45.286;9.900;2023-07-13T13:12:20;34.00;64.20
47805;DHT22;33568;45.286;9.900;2023-07-13T13:14:47;34.10;63.50
47805;DHT22;33568;45.286;9.900;2023-07-13T13:17:30;34.10;63.10
47805;DHT22;33568;45.286;9.900;2023-07-13T13:19:57;34.10;63.10
47805;DHT22;33568;45.286;9.900;2023-07-13T13:22:24;34.20;63.80
47805;DHT22;33568;45.286;9.900;2023-07-13T13:24:50;34.10;64.00
47805;DHT22;33568;45.286;9.900;2023-07-13T13:27:19;34.10;64.00
47805;DHT22;33568;45.286;9.900;2023-07-13T13:29:49;34.10;63.70
47805;DHT22;33568;45.286;9.900;2023-07-13T13:32:18;34.00;63.60
47805;DHT22;33568;45.286;9.900;2023-07-13T13:34:45;33.90;63.70
47805;DHT22;33568;45.286;9.900;2023-07-13T13:37:20;33.90;63.80
47805;DHT22;33568;45.286;9.900;2023-07-13T13:39:48;33.70;63.00
47805;DHT22;33568;45.286;9.900;2023-07-13T13:42:15;33.80;63.80
47805;DHT22;33568;45.286;9.900;2023-07-13T13:44:41;33.90;64.10
47805;DHT22;33568;45.286;9.900;2023-07-13T13:47:27;33.90;64.20
47805;DHT22;33568;45.286;9.900;2023-07-13T13:49:56;34.00;63.40
47805;DHT22;33568;45.286;9.900;2023-07-13T13:52:23;33.90;64.40
47805;DHT22;33568;45.286;9.900;2023-07-13T13:54:50;33.90;64.80
47805;DHT22;33568;45.286;9.900;2023-07-13T13:57:23;33.90;64.70
47805;DHT22;33568;45.286;9.900;2023-07-13T13:59:51;34.00;64.70
47805;DHT22;33568;45.286;9.900;2023-07-13T14:02:27;34.10;64.10
47805;DHT22;33568;45.286;9.900;2023-07-13T14:05:05;34.20;62.90
47805;DHT22;33568;45.286;9.900;2023-07-13T14:07:34;34.20;62.10
47805;DHT22;33568;45.286;9.900;2023-07-13T14:10:00;34.20;62.90
47805;DHT22;33568;45.286;9.900;2023-07-13T14:12:28;34.00;62.70
47805;DHT22;33568;45.286;9.900;2023-07-13T14:14:56;34.00;63.20
47805;DHT22;33568;45.286;9.900;2023-07-13T14:17:26;34.10;63.90
47805;DHT22;33568;45.286;9.900;2023-07-13T14:19:53;34.10;63.70
47805;DHT22;33568;45.286;9.900;2023-07-13T14:22:24;34.20;63.40
47805;DHT22;33568;45.286;9.900;2023-07-13T14:24:53;34.20;62.90
47805;DHT22;33568;45.286;9.900;2023-07-13T14:27:20;34.20;63.20
47805;DHT22;33568;45.286;9.900;2023-07-13T14:29:46;34.20;63.60
47805;DHT22;33568;45.286;9.900;2023-07-13T14:32:13;34.20;63.40
47805;DHT22;33568;45.286;9.900;2023-07-13T14:34:40;34.20;63.60
47805;DHT22;33568;45.286;9.900;2023-07-13T14:37:13;34.10;64.10
47805;DHT22;33568;45.286;9.900;2023-07-13T14:39:42;34.10;63.30
47805;DHT22;33568;45.286;9.900;2023-07-13T14:42:10;34.00;64.20
47805;DHT22;33568;45.286;9.900;2023-07-13T14:44:38;34.10;65.00
47805;DHT22;33568;45.286;9.900;2023-07-13T14:47:05;34.20;64.30
47805;DHT22;33568;45.286;9.900;2023-07-13T14:49:38;34.20;63.80
47805;DHT22;33568;45.286;9.900;2023-07-13T14:52:22;34.40;63.00
47805;DHT22;33568;45.286;9.900;2023-07-13T14:54:49;34.20;61.10
47805;DHT22;33568;45.286;9.900;2023-07-13T14:57:18;34.10;62.60
47805;DHT22;33568;45.286;9.900;2023-07-13T14:59:46;34.10;62.50
47805;DHT22;33568;45.286;9.900;2023-07-13T15:04:46;34.10;62.40
47805;DHT22;33568;45.286;9.900;2023-07-13T15:07:12;34.10;61.90
47805;DHT22;33568;45.286;9.900;2023-07-13T15:09:42;34.20;62.10
47805;DHT22;33568;45.286;9.900;2023-07-13T15:12:08;34.10;61.70
47805;DHT22;33568;45.286;9.900;2023-07-13T15:14:35;34.20;61.80
47805;DHT22;33568;45.286;9.900;2023-07-13T15:17:02;34.10;62.10
47805;DHT22;33568;45.286;9.900;2023-07-13T15:19:28;34.10;62.00
47805;DHT22;33568;45.286;9.900;2023-07-13T15:21:56;34.10;62.10
47805;DHT22;33568;45.286;9.900;2023-07-13T15:24:24;34.10;62.50
47805;DHT22;33568;45.286;9.900;2023-07-13T15:26:51;34.10;62.70
47805;DHT22;33568;45.286;9.900;2023-07-13T15:29:18;34.10;62.70
47805;DHT22;33568;45.286;9.900;2023-07-13T15:31:45;34.10;63.30
47805;DHT22;33568;45.286;9.900;2023-07-13T15:34:18;34.10;62.80
47805;DHT22;33568;45.286;9.900;2023-07-13T15:36:46;34.20;62.50
47805;DHT22;33568;45.286;9.900;2023-07-13T15:39:16;34.30;62.60
47805;DHT22;33568;45.286;9.900;2023-07-13T15:41:44;34.30;62.40
47805;DHT22;33568;45.286;9.900;2023-07-13T15:44:27;34.30;62.60
47805;DHT22;33568;45.286;9.900;2023-07-13T15:46:54;34.40;63.10
47805;DHT22;33568;45.286;9.900;2023-07-13T15:49:21;34.50;62.60
47805;DHT22;33568;45.286;9.900;2023-07-13T15:51:48;34.50;62.50
47805;DHT22;33568;45.286;9.900;2023-07-13T15:54:17;34.40;62.70
47805;DHT22;33568;45.286;9.900;2023-07-13T15:56:51;34.40;63.20
47805;DHT22;33568;45.286;9.900;2023-07-13T15:59:18;34.40;63.10
47805;DHT22;33568;45.286;9.900;2023-07-13T16:01:45;34.40;63.20
47805;DHT22;33568;45.286;9.900;2023-07-13T16:04:15;34.30;63.30
47805;DHT22;33568;45.286;9.900;2023-07-13T16:06:43;34.30;63.50
47805;DHT22;33568;45.286;9.900;2023-07-13T16:09:18;34.30;63.50
47805;DHT22;33568;45.286;9.900;2023-07-13T16:11:46;34.10;62.90
47805;DHT22;33568;45.286;9.900;2023-07-13T16:14:13;34.10;63.50
47805;DHT22;33568;45.286;9.900;2023-07-13T16:16:41;34.10;63.50
47805;DHT22;33568;45.286;9.900;2023-07-13T16:19:09;34.10;63.70
47805;DHT22;33568;45.286;9.900;2023-07-13T16:21:47;34.10;63.70
47805;DHT22;33568;45.286;9.900;2023-07-13T16:24:19;34.10;63.30
47805;DHT22;33568;45.286;9.900;2023-07-13T16:26:47;34.10;63.60
47805;DHT22;33568;45.286;9.900;2023-07-13T16:32:08;34.00;64.20
47805;DHT22;33568;45.286;9.900;2023-07-13T16:34:36;33.90;64.50
47805;DHT22;33568;45.286;9.900;2023-07-13T16:37:13;34.00;65.00
47805;DHT22;33568;45.286;9.900;2023-07-13T16:39:44;33.90;64.80
47805;DHT22;33568;45.286;9.900;2023-07-13T16:42:12;33.90;64.80